Time;durP1;ratioP1;P1;durP2;ratioP2;P2;SDS_P1;SDS_P2;PMS_P1;PMS_P2;Temp;Humidity;BMP_temperature;BMP_pressure;BME280_temperature;BME280_humidity;BME280_pressure;Samples;Min_cycle;Max_cycle;Signal;HPM_P1;HPM_P2
2020/12/26 00:02:20;;;;;;;12.47;8.93;;;;;;;-0.45;100.00;99459.34;4999813;28;20208;-80
2020/12/26 00:04:48;;;;;;;11.73;8.90;;;;;;;-0.52;100.00;99452.53;5009318;28;20197;-79
2020/12/26 00:07:15;;;;;;;11.73;9.43;;;;;;;-0.41;100.00;99455.81;5016641;28;20518;-79
2020/12/26 00:09:43;;;;;;;12.57;9.13;;;;;;;-0.34;100.00;99454.84;5015882;28;20315;-80
2020/12/26 00:12:10;;;;;;;11.83;8.13;;;;;;;-0.19;100.00;99446.75;5016285;28;20204;-79
2020/12/26 00:14:37;;;;;;;10.70;8.90;;;;;;;-0.37;100.00;99441.91;5017003;28;20215;-79
2020/12/26 00:17:04;;;;;;;13.60;9.90;;;;;;;-0.81;100.00;99446.03;5014845;28;20223;-79
2020/12/26 00:19:32;;;;;;;12.70;10.17;;;;;;;-0.83;100.00;99447.81;5016625;28;20200;-79
2020/12/26 00:21:59;;;;;;;31.53;20.20;;;;;;;-0.73;100.00;99445.94;5014688;28;20214;-80
2020/12/26 00:24:26;;;;;;;26.67;15.97;;;;;;;-0.68;100.00;99442.41;5016137;28;20202;-80
2020/12/26 00:26:57;;;;;;;16.63;11.87;;;;;;;-0.76;100.00;99444.22;5015966;28;20256;-79
2020/12/26 00:29:25;;;;;;;17.10;11.23;;;;;;;-0.66;100.00;99444.97;5016447;28;20197;-79
2020/12/26 00:31:52;;;;;;;14.33;9.27;;;;;;;-0.45;100.00;99441.19;5017234;28;20199;-80
2020/12/26 00:34:21;;;;;;;12.70;9.07;;;;;;;-0.33;100.00;99446.13;5017829;28;20242;-79
2020/12/26 00:36:48;;;;;;;12.33;9.10;;;;;;;-0.73;100.00;99454.56;5017128;28;20273;-79
2020/12/26 00:39:15;;;;;;;10.37;8.70;;;;;;;-0.90;100.00;99461.75;5016621;28;20209;-79
2020/12/26 00:41:45;;;;;;;13.17;9.57;;;;;;;-0.89;100.00;99460.88;5016055;28;20232;-79
2020/12/26 00:44:13;;;;;;;12.17;9.17;;;;;;;-0.76;100.00;99461.56;5015722;28;20276;-80
2020/12/26 00:46:40;;;;;;;11.37;8.87;;;;;;;-0.71;100.00;99451.97;5015509;28;20521;-79
2020/12/26 00:49:08;;;;;;;14.50;9.07;;;;;;;-0.90;100.00;99455.72;5011727;28;20205;-78
2020/12/26 00:51:35;;;;;;;10.20;7.50;;;;;;;-0.77;100.00;99463.28;5014610;28;20335;-80
2020/12/26 00:54:02;;;;;;;11.17;7.67;;;;;;;-0.69;100.00;99466.63;5010511;28;20282;-79
2020/12/26 00:56:29;;;;;;;8.70;6.30;;;;;;;-0.59;100.00;99472.56;5013864;28;20610;-80
2020/12/26 00:58:56;;;;;;;10.67;7.63;;;;;;;-0.49;100.00;99475.84;5015629;28;20200;-79
2020/12/26 01:01:24;;;;;;;11.27;8.37;;;;;;;-0.47;100.00;99469.75;5019302;28;20725;-78
2020/12/26 01:04:06;;;;;;;11.43;7.90;;;;;;;-0.57;100.00;99464.72;5019006;28;20217;-78
2020/12/26 01:06:33;;;;;;;8.57;6.57;;;;;;;-0.55;100.00;99462.94;5019202;28;20207;-78
2020/12/26 01:09:00;;;;;;;9.73;6.57;;;;;;;-0.49;100.00;99468.06;5017807;28;20259;-78
2020/12/26 01:11:27;;;;;;;9.20;7.73;;;;;;;-0.48;100.00;99467.19;5016699;28;20242;-78
2020/12/26 01:13:54;;;;;;;9.80;7.07;;;;;;;-0.54;100.00;99469.88;5015208;28;20192;-78
2020/12/26 01:16:21;;;;;;;11.47;8.80;;;;;;;-0.76;100.00;99479.72;5013067;28;20230;-78
2020/12/26 01:18:50;;;;;;;13.87;9.53;;;;;;;-1.15;100.00;99468.16;5012026;28;20282;-81
2020/12/26 01:21:17;;;;;;;12.23;9.40;;;;;;;-1.23;100.00;99473.44;5010389;28;20708;-78
2020/12/26 01:23:44;;;;;;;10.93;8.43;;;;;;;-1.07;100.00;99479.31;5012029;28;20538;-78
2020/12/26 01:26:14;;;;;;;11.20;8.13;;;;;;;-0.98;100.00;99479.16;5012433;28;20661;-79
2020/12/26 01:28:41;;;;;;;13.80;9.47;;;;;;;-0.98;100.00;99486.94;5013945;28;20537;-79
2020/12/26 01:31:12;;;;;;;13.57;10.27;;;;;;;-1.19;100.00;99489.84;5013844;28;20281;-78
2020/12/26 01:33:39;;;;;;;12.33;9.03;;;;;;;-1.22;100.00;99498.50;5014109;28;20603;-79
2020/12/26 01:36:10;;;;;;;13.13;9.80;;;;;;;-1.10;100.00;99510.47;5013863;28;20215;-79
2020/12/26 01:38:37;;;;;;;12.97;9.93;;;;;;;-1.23;100.00;99509.75;5013302;28;20207;-78
2020/12/26 01:41:05;;;;;;;12.47;8.93;;;;;;;-1.13;100.00;99507.91;5013195;28;20199;-79
2020/12/26 01:43:33;;;;;;;14.40;9.27;;;;;;;-1.02;100.00;99516.41;5014401;28;20188;-78
2020/12/26 01:46:01;;;;;;;12.13;10.43;;;;;;;-1.17;100.00;99519.19;5004573;28;20881;-79
2020/12/26 01:48:28;;;;;;;12.57;9.73;;;;;;;-1.01;100.00;99520.69;5013419;28;20203;-78
2020/12/26 01:50:56;;;;;;;9.40;7.10;;;;;;;-0.78;100.00;99522.97;5013493;28;20270;-79
2020/12/26 01:53:23;;;;;;;13.93;8.90;;;;;;;-0.61;100.00;99532.25;5011498;28;20210;-79
2020/12/26 01:55:50;;;;;;;8.80;7.57;;;;;;;-0.49;100.00;99518.25;5012762;28;20230;-78
2020/12/26 01:58:17;;;;;;;9.50;7.33;;;;;;;-0.41;100.00;99538.88;5012607;28;20196;-78
2020/12/26 02:00:44;;;;;;;12.47;9.63;;;;;;;-0.42;100.00;99529.41;5009946;28;20199;-79
2020/12/26 02:03:13;;;;;;;10.77;8.97;;;;;;;-0.42;100.00;99534.59;5011201;28;20211;-79
2020/12/26 02:05:39;;;;;;;12.80;8.80;;;;;;;-0.55;100.00;99535.63;5011265;28;20192;-79
2020/12/26 02:08:06;;;;;;;9.73;7.43;;;;;;;-0.41;100.00;99537.16;5013472;28;20199;-79
2020/12/26 02:10:35;;;;;;;8.57;6.97;;;;;;;-0.27;100.00;99539.53;5012323;28;20642;-79
2020/12/26 02:13:02;;;;;;;8.30;7.23;;;;;;;-0.27;100.00;99542.13;5013050;28;20191;-78
2020/12/26 02:15:29;;;;;;;9.00;7.70;;;;;;;-0.20;100.00;99538.56;5012861;28;20303;-80
2020/12/26 02:17:56;;;;;;;10.30;7.80;;;;;;;-0.13;100.00;99529.78;5012422;28;20214;-79
2020/12/26 02:20:34;;;;;;;11.63;9.27;;;;;;;-0.18;100.00;99536.81;5011279;28;20191;-78
2020/12/26 02:23:03;;;;;;;12.30;7.90;;;;;;;-0.11;100.00;99528.88;5012098;28;20249;-79
2020/12/26 02:25:32;;;;;;;13.50;9.83;;;;;;;-0.12;100.00;99526.31;5011890;28;20199;-79
2020/12/26 02:27:59;;;;;;;13.30;8.90;;;;;;;-0.25;100.00;99525.63;5011852;28;20657;-78
2020/12/26 02:30:26;;;;;;;10.60;7.90;;;;;;;-0.24;100.00;99534.28;5013411;28;20305;-78
2020/12/26 02:32:53;;;;;;;12.57;8.93;;;;;;;-0.34;100.00;99536.19;5012025;28;20576;-78
2020/12/26 02:35:20;;;;;;;9.73;6.97;;;;;;;-0.19;100.00;99537.66;5012701;28;20196;-78
2020/12/26 02:37:47;;;;;;;9.00;6.90;;;;;;;-0.16;100.00;99540.22;5013083;28;20230;-79
2020/12/26 02:40:14;;;;;;;12.00;7.53;;;;;;;-0.09;100.00;99531.47;5012692;28;20199;-79
2020/12/26 02:42:44;;;;;;;9.47;6.83;;;;;;;-0.06;100.00;99527.03;5012464;28;20187;-79
2020/12/26 02:45:11;;;;;;;12.17;9.20;;;;;;;-0.39;100.00;99534.56;5012528;28;20212;-78
2020/12/26 02:47:38;;;;;;;12.53;8.83;;;;;;;-0.41;100.00;99533.69;5011194;28;20196;-79
2020/12/26 02:50:05;;;;;;;11.93;8.93;;;;;;;-0.48;100.00;99538.13;5009724;28;20837;-78
2020/12/26 02:52:32;;;;;;;12.80;8.80;;;;;;;-0.62;100.00;99540.91;5009446;28;20195;-81
2020/12/26 02:54:59;;;;;;;9.80;7.13;;;;;;;-0.59;100.00;99543.47;5012372;28;20203;-79
2020/12/26 02:57:26;;;;;;;11.73;7.47;;;;;;;-0.37;100.00;99546.63;5012142;28;20274;-79
2020/12/26 02:59:54;;;;;;;10.13;7.93;;;;;;;-0.37;100.00;99543.16;5010641;28;20215;-79
2020/12/26 03:02:21;;;;;;;12.40;9.43;;;;;;;-0.60;100.00;99544.38;5007491;28;21453;-80
2020/12/26 03:04:48;;;;;;;11.77;8.40;;;;;;;-0.43;100.00;99545.84;5010375;28;20199;-79
2020/12/26 03:07:15;;;;;;;11.90;8.27;;;;;;;-0.33;100.00;99543.09;5012088;28;20208;-80
2020/12/26 03:09:42;;;;;;;13.17;8.73;;;;;;;-0.46;100.00;99540.69;5006505;28;20632;-79
2020/12/26 03:12:08;;;;;;;11.40;7.93;;;;;;;-0.55;100.00;99536.50;5001703;28;20199;-79
2020/12/26 03:14:36;;;;;;;10.13;7.57;;;;;;;-0.37;100.00;99535.38;5012170;28;20211;-79
2020/12/26 03:17:04;;;;;;;13.17;7.93;;;;;;;-0.34;100.00;99545.72;5011366;28;20219;-80
2020/12/26 03:19:32;;;;;;;13.13;8.57;;;;;;;-0.27;100.00;99552.53;5011904;28;20210;-79
2020/12/26 03:21:58;;;;;;;15.73;9.93;;;;;;;-0.18;100.00;99548.06;5001796;28;20665;-79
2020/12/26 03:24:25;;;;;;;14.13;10.30;;;;;;;-0.26;100.00;99554.25;5026701;28;20218;-79
2020/12/26 03:26:52;;;;;;;14.17;8.37;;;;;;;-0.22;100.00;99545.50;5011751;28;20199;-81
2020/12/26 03:29:19;;;;;;;12.57;8.70;;;;;;;-0.18;100.00;99547.19;5015458;28;20226;-79
2020/12/26 03:31:47;;;;;;;10.87;7.67;;;;;;;-0.06;100.00;99552.19;5011379;28;20197;-79
2020/12/26 03:34:15;;;;;;;10.97;7.27;;;;;;;0.05;100.00;99558.06;5010633;28;20707;-79
2020/12/26 03:36:42;;;;;;;9.83;7.23;;;;;;;0.03;100.00;99556.38;5011697;28;20230;-79
2020/12/26 03:39:09;;;;;;;12.47;8.47;;;;;;;0.11;100.00;99550.19;5011788;28;20267;-80
2020/12/26 03:41:36;;;;;;;15.73;9.33;;;;;;;-0.05;100.00;99553.88;5010578;28;20204;-79
2020/12/26 03:44:03;;;;;;;14.57;9.90;;;;;;;-0.44;100.00;99560.56;5011784;28;20658;-79
2020/12/26 03:46:30;;;;;;;12.83;9.10;;;;;;;-0.34;100.00;99563.91;5012258;28;20195;-80
2020/12/26 03:48:57;;;;;;;12.30;8.90;;;;;;;-0.26;100.00;99564.63;5012115;28;20200;-79
2020/12/26 03:51:32;;;;;;;10.77;6.93;;;;;;;-0.05;100.00;99565.16;5010553;28;20270;-79
2020/12/26 03:54:00;;;;;;;15.23;9.53;;;;;;;0.00;100.00;99567.69;5011684;28;20278;-79
2020/12/26 03:56:26;;;;;;;13.97;8.70;;;;;;;0.08;100.00;99564.94;5011358;28;20215;-79
2020/12/26 03:58:53;;;;;;;17.43;10.77;;;;;;;0.11;100.00;99562.31;5011404;28;20206;-79
2020/12/26 04:01:20;;;;;;;11.60;7.40;;;;;;;0.11;100.00;99563.16;5011811;28;20200;-80
2020/12/26 04:03:47;;;;;;;16.90;11.47;;;;;;;-0.01;100.00;99566.81;5011845;28;20279;-80
2020/12/26 04:06:14;;;;;;;18.67;10.93;;;;;;;0.08;100.00;99568.41;5013836;28;20203;-79
2020/12/26 04:08:42;;;;;;;17.90;11.37;;;;;;;0.05;100.00;99571.06;5012294;28;20233;-78
2020/12/26 04:11:10;;;;;;;15.60;9.83;;;;;;;-0.01;100.00;99572.03;5009007;28;20235;-78
2020/12/26 04:13:37;;;;;;;15.10;9.10;;;;;;;0.02;100.00;99570.25;5010783;28;20204;-79
2020/12/26 04:16:04;;;;;;;14.97;9.10;;;;;;;0.02;100.00;99571.09;5011748;28;20220;-79
2020/12/26 04:18:31;;;;;;;15.97;8.53;;;;;;;0.14;100.00;99573.47;4997300;28;20572;-79
2020/12/26 04:20:59;;;;;;;11.93;8.57;;;;;;;0.21;100.00;99569.91;5011469;28;20197;-79
2020/12/26 04:23:26;;;;;;;10.63;7.20;;;;;;;0.27;100.00;99571.56;5000479;28;20211;-78
2020/12/26 04:25:53;;;;;;;14.17;9.43;;;;;;;0.33;100.00;99564.50;5010624;28;20200;-79
2020/12/26 04:28:23;;;;;;;13.77;8.90;;;;;;;0.36;100.00;99568.81;5026280;28;20209;-78
2020/12/26 04:30:51;;;;;;;16.73;10.20;;;;;;;0.27;100.00;99571.56;5009121;28;20216;-79
2020/12/26 04:33:18;;;;;;;12.97;9.83;;;;;;;0.09;100.00;99579.63;5010029;28;20270;-80
2020/12/26 04:35:46;;;;;;;12.30;8.53;;;;;;;0.24;100.00;99572.47;5024968;28;20208;-78
2020/12/26 04:38:13;;;;;;;16.23;10.00;;;;;;;0.20;100.00;99560.38;5006597;28;20241;-79
2020/12/26 04:40:44;;;;;;;13.70;9.77;;;;;;;0.11;100.00;99568.38;5007009;28;20239;-78
2020/12/26 04:43:12;;;;;;;14.97;10.17;;;;;;;0.07;100.00;99564.09;5008587;28;20188;-79
2020/12/26 04:45:40;;;;;;;12.77;7.80;;;;;;;0.18;100.00;99572.56;5011390;28;20200;-79
2020/12/26 04:48:13;;;;;;;10.80;7.47;;;;;;;0.28;100.00;99566.31;5011351;28;20267;-79
2020/12/26 04:50:47;;;;;;;14.70;9.73;;;;;;;0.19;100.00;99569.09;5013592;28;20188;-80
2020/12/26 04:53:17;;;;;;;16.70;10.03;;;;;;;0.14;100.00;99577.84;5014636;28;20195;-79
2020/12/26 04:55:47;;;;;;;11.90;8.53;;;;;;;0.21;100.00;99572.50;5014769;28;20255;-79
2020/12/26 04:58:16;;;;;;;16.63;10.50;;;;;;;-0.06;100.00;99578.19;5014907;28;20612;-78
2020/12/26 05:00:44;;;;;;;12.07;9.53;;;;;;;-0.06;100.00;99580.78;5013031;28;20226;-79
2020/12/26 05:03:12;;;;;;;19.43;11.43;;;;;;;-0.22;100.00;99581.88;5014733;28;20197;-79
2020/12/26 05:05:41;;;;;;;19.63;10.27;;;;;;;-0.33;100.00;99581.16;5015229;28;20670;-78
2020/12/26 05:08:10;;;;;;;17.03;10.93;;;;;;;-0.48;100.00;99584.88;5013968;28;20200;-79
2020/12/26 05:10:38;;;;;;;15.87;10.57;;;;;;;-0.30;100.00;99584.59;5014815;28;20281;-80
2020/12/26 05:13:08;;;;;;;20.77;11.70;;;;;;;-0.27;100.00;99588.88;5004468;28;20209;-79
2020/12/26 05:15:36;;;;;;;17.43;11.70;;;;;;;-0.09;100.00;99597.28;5005423;28;20207;-79
2020/12/26 05:18:03;;;;;;;15.73;10.43;;;;;;;0.02;100.00;99599.69;5012656;28;20199;-79
2020/12/26 05:20:31;;;;;;;18.57;10.63;;;;;;;-0.01;100.00;99604.94;5014662;28;20196;-79
2020/12/26 05:23:07;;;;;;;17.77;10.67;;;;;;;-0.15;100.00;99599.97;5008319;28;20202;-80
2020/12/26 05:25:39;;;;;;;21.53;12.00;;;;;;;-0.06;100.00;99594.59;5005926;28;20211;-79
2020/12/26 05:28:15;;;;;;;17.80;11.53;;;;;;;-0.08;100.00;99591.16;5014119;28;20204;-79
2020/12/26 05:30:44;;;;;;;16.13;9.50;;;;;;;0.20;100.00;99591.56;5004679;28;20208;-81
2020/12/26 05:33:12;;;;;;;13.70;8.47;;;;;;;0.39;100.00;99590.38;4995134;28;20735;-79
2020/12/26 05:35:41;;;;;;;17.70;11.43;;;;;;;0.08;100.00;99590.94;5005274;28;20200;-79
2020/12/26 05:38:18;;;;;;;18.50;10.77;;;;;;;0.16;100.00;99589.94;5011158;28;20197;-80
2020/12/26 05:40:47;;;;;;;14.60;9.93;;;;;;;0.37;100.00;99584.34;5012963;28;20195;-79
2020/12/26 05:43:16;;;;;;;13.67;8.60;;;;;;;0.50;100.00;99583.28;4984402;28;20219;-78
2020/12/26 05:45:45;;;;;;;15.33;10.27;;;;;;;0.52;100.00;99578.03;4992917;28;20205;-79
2020/12/26 05:48:15;;;;;;;13.60;9.03;;;;;;;0.50;100.00;99575.47;4994503;28;20194;-79
2020/12/26 05:50:42;;;;;;;13.43;9.73;;;;;;;0.59;100.00;99577.88;5003141;28;20198;-78
2020/12/26 05:53:12;;;;;;;16.63;10.77;;;;;;;0.61;100.00;99577.00;5011514;28;20666;-77
2020/12/26 05:55:41;;;;;;;11.03;8.20;;;;;;;0.61;100.00;99574.41;5013442;28;20187;-78
2020/12/26 05:58:08;;;;;;;12.40;8.30;;;;;;;0.63;100.00;99580.44;4988728;28;20693;-77
2020/12/26 06:00:37;;;;;;;15.63;10.20;;;;;;;0.63;100.00;99578.69;5013476;28;20202;-79
2020/12/26 06:03:25;;;;;;;17.07;10.77;;;;;;;0.26;100.00;99583.69;4997423;28;20198;-78
2020/12/26 06:05:53;;;;;;;15.57;9.27;;;;;;;0.10;100.00;99584.84;4994308;28;20286;-80
2020/12/26 06:08:22;;;;;;;14.13;8.23;;;;;;;0.32;100.00;99586.19;5013269;28;20201;-79
2020/12/26 06:10:51;;;;;;;17.57;10.53;;;;;;;0.46;100.00;99588.53;5012095;28;20239;-78
2020/12/26 06:13:21;;;;;;;14.67;9.60;;;;;;;0.51;100.00;99587.56;5013039;28;20661;-78
2020/12/26 06:15:51;;;;;;;10.97;8.80;;;;;;;0.49;100.00;99584.16;5011258;28;20204;-78
2020/12/26 06:18:19;;;;;;;11.47;9.50;;;;;;;0.46;100.00;99589.41;5008041;28;20216;-78
2020/12/26 06:20:48;;;;;;;16.33;11.40;;;;;;;0.31;100.00;99584.44;5009292;28;20230;-78
2020/12/26 06:23:17;;;;;;;12.20;9.63;;;;;;;0.18;100.00;99585.56;5010571;28;20720;-74
2020/12/26 06:25:44;;;;;;;15.70;10.57;;;;;;;-0.05;100.00;99596.31;5012468;28;20691;-77
2020/12/26 06:28:24;;;;;;;19.63;11.03;;;;;;;-0.26;100.00;99590.59;5012231;28;20199;-78
2020/12/26 06:30:56;;;;;;;12.80;9.00;;;;;;;-0.20;100.00;99591.38;4994145;28;20195;-79
2020/12/26 06:33:25;;;;;;;13.90;9.17;;;;;;;-0.10;100.00;99592.06;5013299;28;20266;-78
2020/12/26 06:35:57;;;;;;;13.40;8.80;;;;;;;-0.02;100.00;99596.28;5005177;28;20210;-81
2020/12/26 06:38:27;;;;;;;12.13;8.07;;;;;;;-0.06;100.00;99601.56;5013075;28;20196;-79
2020/12/26 06:40:59;;;;;;;11.17;8.20;;;;;;;-0.09;100.00;99604.19;5008838;28;20257;-81
2020/12/26 06:43:46;;;;;;;17.77;11.10;;;;;;;-0.27;100.00;99601.88;5012627;28;20277;-80
2020/12/26 06:46:40;;;;;;;15.63;8.43;;;;;;;-0.33;100.00;99602.81;5013045;28;20199;-79
2020/12/26 06:49:27;;;;;;;12.00;8.27;;;;;;;-0.15;100.00;99609.47;5005505;28;20208;-83
2020/12/26 06:51:56;;;;;;;15.73;10.50;;;;;;;-0.12;100.00;99609.44;5012478;28;20214;-82
2020/12/26 06:54:47;;;;;;;8.27;6.67;;;;;;;-0.06;100.00;99601.56;5011708;28;20188;-84
2020/12/26 06:57:37;;;;;;;16.57;9.73;;;;;;;-0.20;100.00;99595.72;5012983;28;20676;-79
2020/12/26 07:00:27;;;;;;;16.37;9.97;;;;;;;-0.40;100.00;99602.94;5013504;28;20190;-82
2020/12/26 07:03:31;;;;;;;13.37;9.10;;;;;;;-0.33;100.00;99599.34;5008114;28;20261;-80
2020/12/26 07:05:59;;;;;;;11.50;8.07;;;;;;;-0.28;100.00;99603.59;5010326;28;20207;-73
2020/12/26 07:08:32;;;;;;;10.83;7.13;;;;;;;-0.11;100.00;99611.13;5012788;28;20203;-74
2020/12/26 07:11:01;;;;;;;13.93;8.20;;;;;;;-0.01;100.00;99615.31;5012969;28;20239;-72
2020/12/26 07:13:42;;;;;;;12.07;7.67;;;;;;;0.04;100.00;99623.03;5011617;28;20677;-73
2020/12/26 07:16:40;;;;;;;16.13;10.97;;;;;;;-0.07;100.00;99623.22;5009217;28;20200;-72
2020/12/26 07:19:40;;;;;;;14.77;10.53;;;;;;;-0.10;100.00;99628.44;4998821;28;20279;-71
2020/12/26 07:22:13;;;;;;;16.77;11.43;;;;;;;-0.07;100.00;99628.41;5009760;28;20258;-70
2020/12/26 07:24:42;;;;;;;15.50;10.03;;;;;;;0.00;100.00;99627.44;5014038;28;20225;-73
2020/12/26 07:27:14;;;;;;;17.20;11.07;;;;;;;-0.12;100.00;99630.22;4995404;28;20211;-78
2020/12/26 07:30:06;;;;;;;13.70;10.00;;;;;;;0.02;100.00;99627.41;5000216;28;20200;-73
2020/12/26 07:32:55;;;;;;;14.30;9.17;;;;;;;0.16;100.00;99633.25;5013192;28;20207;-73
2020/12/26 07:35:39;;;;;;;10.73;7.50;;;;;;;0.34;100.00;99631.19;5013347;28;20257;-73
2020/12/26 07:38:11;;;;;;;10.40;7.57;;;;;;;0.41;100.00;99627.63;5012585;28;20677;-73
2020/12/26 07:40:41;;;;;;;12.83;8.13;;;;;;;0.58;100.00;99632.53;5012772;28;20251;-78
2020/12/26 07:43:09;;;;;;;11.63;7.77;;;;;;;0.76;100.00;99633.97;5013387;28;20210;-74
2020/12/26 07:45:38;;;;;;;10.27;7.87;;;;;;;0.80;100.00;99630.41;5012580;28;20576;-72
2020/12/26 07:48:06;;;;;;;13.33;8.73;;;;;;;0.93;100.00;99622.34;5013087;28;20594;-73
2020/12/26 07:50:34;;;;;;;14.30;11.17;;;;;;;1.02;100.00;99616.97;5021355;28;20191;-72
2020/12/26 07:53:04;;;;;;;14.67;10.13;;;;;;;1.13;100.00;99611.53;5032780;28;20203;-73
2020/12/26 07:55:31;;;;;;;14.47;10.27;;;;;;;1.21;100.00;99604.41;5023629;28;20752;-72
2020/12/26 07:58:04;;;;;;;16.47;10.73;;;;;;;1.17;100.00;99600.19;5012759;28;20228;-73
2020/12/26 08:00:33;;;;;;;18.73;12.27;;;;;;;1.12;100.00;99597.66;5012653;28;20205;-76
2020/12/26 08:03:02;;;;;;;15.57;10.23;;;;;;;1.27;99.92;99600.84;5012225;28;20294;-78
2020/12/26 08:05:30;;;;;;;15.80;10.00;;;;;;;1.37;99.63;99592.81;5005865;28;20655;-75
2020/12/26 08:07:58;;;;;;;15.67;10.63;;;;;;;1.52;98.77;99589.88;4994546;28;20672;-73
2020/12/26 08:10:27;;;;;;;15.87;9.50;;;;;;;1.62;99.15;99599.22;5004381;28;20240;-77
2020/12/26 08:12:56;;;;;;;13.03;9.30;;;;;;;1.62;98.17;99601.81;4992716;28;20205;-76
2020/12/26 08:15:26;;;;;;;15.50;10.23;;;;;;;1.74;98.51;99598.91;5009870;28;20196;-76
2020/12/26 08:17:56;;;;;;;13.50;10.23;;;;;;;1.95;97.88;99607.13;5011314;28;20591;-77
2020/12/26 08:20:25;;;;;;;17.03;11.93;;;;;;;2.01;95.99;99596.56;5012473;28;20293;-76
2020/12/26 08:22:52;;;;;;;17.93;14.77;;;;;;;1.80;97.37;99590.09;5013032;28;20208;-76
2020/12/26 08:25:20;;;;;;;18.03;11.83;;;;;;;1.71;96.81;99583.34;5014262;28;20202;-77
2020/12/26 08:27:48;;;;;;;16.83;11.53;;;;;;;1.69;97.69;99579.06;5016891;28;20197;-74
2020/12/26 08:30:18;;;;;;;16.83;11.73;;;;;;;1.80;97.32;99587.50;5032084;28;20198;-75
2020/12/26 08:33:08;;;;;;;18.43;11.00;;;;;;;1.92;96.96;99583.75;5015677;28;20219;-76
2020/12/26 08:35:39;;;;;;;15.33;11.70;;;;;;;1.80;96.93;99586.66;5016764;28;20225;-79
2020/12/26 08:38:12;;;;;;;14.40;10.73;;;;;;;1.70;96.55;99588.59;5003023;28;20218;-76
2020/12/26 08:40:41;;;;;;;18.80;12.50;;;;;;;1.71;96.84;99587.72;5015966;28;20278;-78
2020/12/26 08:43:13;;;;;;;18.30;11.90;;;;;;;1.85;96.27;99600.44;5002821;28;20199;-76
2020/12/26 08:45:40;;;;;;;17.57;12.17;;;;;;;1.75;95.88;99587.63;5014921;28;20207;-76
2020/12/26 08:48:16;;;;;;;19.23;11.97;;;;;;;1.73;95.26;99581.59;5014592;28;20683;-77
2020/12/26 08:50:43;;;;;;;18.67;11.63;;;;;;;1.78;95.21;99578.88;5014610;28;20201;-76
2020/12/26 08:53:11;;;;;;;14.90;10.67;;;;;;;2.05;94.31;99582.59;5015718;28;20210;-76
2020/12/26 08:55:46;;;;;;;13.83;10.47;;;;;;;2.41;93.90;99581.66;5015657;28;20238;-79
2020/12/26 08:58:25;;;;;;;17.30;11.37;;;;;;;2.37;92.20;99590.44;5016329;28;20615;-76
2020/12/26 09:00:55;;;;;;;12.90;10.17;;;;;;;2.82;91.71;99589.25;5015374;28;20214;-77
2020/12/26 09:03:25;;;;;;;17.10;11.70;;;;;;;2.77;91.46;99585.91;5014036;28;20202;-76
2020/12/26 09:05:52;;;;;;;14.03;10.87;;;;;;;2.79;91.36;99583.25;5015877;28;20277;-74
2020/12/26 09:08:26;;;;;;;17.87;10.77;;;;;;;2.67;91.81;99591.41;5015019;28;20203;-74
2020/12/26 09:10:59;;;;;;;13.40;9.47;;;;;;;2.64;90.84;99600.16;5014751;28;20582;-80
2020/12/26 09:13:34;;;;;;;16.47;10.07;;;;;;;2.59;90.32;99602.03;5014926;28;20799;-76
2020/12/26 09:16:07;;;;;;;13.90;9.97;;;;;;;2.66;89.07;99608.84;4999496;28;20195;-78
2020/12/26 09:18:39;;;;;;;16.50;8.87;;;;;;;2.72;89.20;99621.69;5011330;28;20688;-74
2020/12/26 09:21:08;;;;;;;12.07;8.90;;;;;;;2.84;89.45;99615.28;5014974;28;20210;-75
2020/12/26 09:23:37;;;;;;;12.23;8.87;;;;;;;2.72;88.19;99624.31;5015167;28;20600;-75
2020/12/26 09:26:12;;;;;;;8.97;7.23;;;;;;;2.85;88.11;99627.47;5015275;28;20195;-76
2020/12/26 09:28:51;;;;;;;9.73;6.90;;;;;;;2.81;88.49;99634.50;5015501;28;20191;-74
2020/12/26 09:31:20;;;;;;;9.73;8.17;;;;;;;2.82;88.71;99637.97;5015351;28;20202;-77
2020/12/26 09:33:48;;;;;;;11.93;8.10;;;;;;;2.40;87.25;99647.75;5009603;28;20196;-75
2020/12/26 09:36:17;;;;;;;12.07;9.03;;;;;;;2.31;88.86;99645.38;5012056;28;20207;-75
2020/12/26 09:38:44;;;;;;;10.80;8.23;;;;;;;2.34;87.82;99658.34;5015264;28;20219;-75
2020/12/26 09:41:16;;;;;;;9.53;7.80;;;;;;;2.70;88.44;99660.03;5016136;28;20567;-74
2020/12/26 09:43:44;;;;;;;9.83;7.37;;;;;;;2.89;86.85;99653.44;5014064;28;20664;-77
2020/12/26 09:46:12;;;;;;;7.83;6.60;;;;;;;2.69;88.24;99655.72;5008750;28;20204;-76
2020/12/26 09:48:44;;;;;;;13.87;8.67;;;;;;;2.84;88.05;99655.31;5006697;28;20199;-75
2020/12/26 09:51:14;;;;;;;11.03;6.93;;;;;;;3.05;87.20;99658.25;5013704;28;20201;-74
2020/12/26 09:53:43;;;;;;;11.17;6.77;;;;;;;3.03;86.40;99655.69;5014007;28;20203;-78
2020/12/26 09:56:11;;;;;;;11.73;8.20;;;;;;;2.68;83.78;99664.44;5003589;28;20253;-79
2020/12/26 09:58:39;;;;;;;8.47;6.87;;;;;;;2.76;85.14;99656.41;5013915;28;20212;-75
2020/12/26 10:01:06;;;;;;;10.17;7.60;;;;;;;2.89;85.46;99648.22;5013551;28;20203;-76
2020/12/26 10:03:33;;;;;;;10.30;7.63;;;;;;;2.62;83.15;99648.94;5028239;28;20676;-73
2020/12/26 10:06:00;;;;;;;10.70;7.97;;;;;;;2.79;85.45;99651.97;5012288;28;20215;-75
2020/12/26 10:08:30;;;;;;;9.33;6.83;;;;;;;2.97;85.06;99642.81;5011581;28;20723;-75
2020/12/26 10:10:58;;;;;;;9.97;7.53;;;;;;;2.70;84.26;99640.91;5014412;28;20242;-75
2020/12/26 10:13:25;;;;;;;10.27;7.10;;;;;;;3.00;85.21;99645.34;5001859;28;20184;-75
2020/12/26 10:15:52;;;;;;;11.83;7.60;;;;;;;2.93;83.08;99647.25;5008906;28;20794;-75
2020/12/26 10:18:19;;;;;;;9.47;7.50;;;;;;;2.71;85.31;99653.06;5008937;28;20222;-74
2020/12/26 10:20:46;;;;;;;11.33;8.60;;;;;;;2.96;86.14;99643.69;5009166;28;20660;-75
2020/12/26 10:23:13;;;;;;;12.17;8.10;;;;;;;2.91;86.59;99635.13;5006070;28;20201;-76
2020/12/26 10:25:50;;;;;;;12.80;8.00;;;;;;;3.15;85.60;99638.81;5009842;28;20353;-74
2020/12/26 10:28:17;;;;;;;10.27;7.90;;;;;;;2.80;85.02;99638.03;5010433;28;20211;-75
2020/12/26 10:30:46;;;;;;;9.93;6.53;;;;;;;3.10;84.83;99638.09;5010145;28;20195;-75
2020/12/26 10:33:14;;;;;;;10.80;8.20;;;;;;;3.23;85.91;99627.25;5008414;28;20196;-76
2020/12/26 10:35:41;;;;;;;10.57;8.33;;;;;;;3.17;87.19;99626.59;5002974;28;20290;-78
2020/12/26 10:38:08;;;;;;;9.37;7.60;;;;;;;3.26;86.48;99626.31;5009848;28;20226;-75
2020/12/26 10:40:35;;;;;;;8.40;6.77;;;;;;;3.48;85.57;99620.44;5010060;28;20207;-77
2020/12/26 10:43:03;;;;;;;9.33;7.10;;;;;;;3.64;85.15;99617.38;5005260;28;20203;-74
2020/12/26 10:45:30;;;;;;;11.77;8.13;;;;;;;3.74;84.33;99618.78;5007331;28;20203;-74
2020/12/26 10:47:57;;;;;;;12.33;7.93;;;;;;;3.50;84.54;99612.56;5013638;28;20653;-73
2020/12/26 10:50:25;;;;;;;10.57;8.13;;;;;;;3.72;83.44;99603.19;5022349;28;20202;-75
2020/12/26 10:52:52;;;;;;;9.03;7.33;;;;;;;3.50;84.33;99609.94;5010818;28;20203;-74
2020/12/26 10:55:19;;;;;;;12.53;7.90;;;;;;;3.85;83.61;99598.41;5024704;28;20798;-74
2020/12/26 10:57:46;;;;;;;8.20;7.10;;;;;;;4.25;82.69;99605.84;4997467;28;20244;-74
2020/12/26 11:00:14;;;;;;;8.70;6.60;;;;;;;4.16;81.52;99606.13;5008512;28;20314;-74
2020/12/26 11:02:41;;;;;;;14.47;8.67;;;;;;;4.22;81.37;99595.47;5009254;28;20210;-75
2020/12/26 11:05:08;;;;;;;11.87;7.90;;;;;;;4.19;82.59;99590.34;5009664;28;20209;-74
2020/12/26 11:07:35;;;;;;;8.60;7.03;;;;;;;4.33;80.99;99589.00;5013409;28;20201;-74
2020/12/26 11:10:03;;;;;;;8.90;6.90;;;;;;;4.45;79.74;99582.50;5010258;28;20237;-74
2020/12/26 11:12:31;;;;;;;8.57;7.03;;;;;;;4.12;79.45;99570.53;5008903;28;20197;-74
2020/12/26 11:14:58;;;;;;;11.70;7.20;;;;;;;4.21;81.24;99567.63;5013420;28;20226;-75
2020/12/26 11:17:26;;;;;;;7.77;6.70;;;;;;;4.14;82.02;99560.88;5011511;28;20214;-77
2020/12/26 11:19:54;;;;;;;8.27;6.30;;;;;;;4.26;81.39;99561.34;5008595;28;20210;-74
2020/12/26 11:22:21;;;;;;;10.43;7.00;;;;;;;4.46;80.03;99563.28;5018039;28;20194;-73
2020/12/26 11:24:48;;;;;;;7.57;6.50;;;;;;;4.55;79.39;99562.94;5010248;28;20213;-75
2020/12/26 11:27:15;;;;;;;7.83;5.37;;;;;;;4.26;78.11;99555.25;5009900;28;20224;-74
2020/12/26 11:29:42;;;;;;;6.90;5.90;;;;;;;4.48;78.07;99551.00;5010793;28;20204;-75
2020/12/26 11:32:09;;;;;;;8.23;7.20;;;;;;;4.44;76.79;99559.84;5009894;28;20206;-76
2020/12/26 11:34:37;;;;;;;7.03;5.80;;;;;;;4.42;77.53;99545.97;5009877;28;20286;-76
2020/12/26 11:37:05;;;;;;;6.83;5.53;;;;;;;4.61;78.80;99547.03;5009342;28;20207;-76